Time;durP1;ratioP1;P1;durP2;ratioP2;P2;SDS_P1;SDS_P2;PMS_P1;PMS_P2;Temp;Humidity;BMP_temperature;BMP_pressure;BME280_temperature;BME280_humidity;BME280_pressure;Samples;Min_cycle;Max_cycle;Signal;HPM_P1;HPM_P2
2022/05/04 00:01:57;;;;;;;;;;;;;;;8.02;100.00;99666.80;1719747;84;20102;-75
2022/05/04 00:04:23;;;;;;;;;;;;;;;8.02;100.00;99669.48;1691024;85;20408;-74
2022/05/04 00:06:51;;;;;;;;;;;;;;;8.00;100.00;99677.72;1719492;84;20406;-75
2022/05/04 00:09:18;;;;;;;;;;;;;;;7.98;100.00;99674.36;1691043;84;20131;-75
2022/05/04 00:11:45;;;;;;;;;;;;;;;7.97;100.00;99669.48;1719601;84;20137;-75
2022/05/04 00:14:12;;;;;;;;;;;;;;;7.95;100.00;99671.50;1691178;85;20124;-75
2022/05/04 00:16:39;;;;;;;;;;;;;;;7.92;100.00;99672.34;1719458;84;20109;-76
2022/05/04 00:19:06;;;;;;;;;;;;;;;7.91;100.00;99673.33;1691260;85;20119;-75
2022/05/04 00:21:33;;;;;;;;;;;;;;;7.87;100.00;99672.81;1719616;82;20118;-75
2022/05/04 00:24:00;;;;;;;;;;;;;;;7.86;100.00;99672.97;1701427;84;20153;-74
2022/05/04 00:26:29;;;;;;;;;;;;;;;7.83;100.00;99678.19;1736966;83;20095;-75
2022/05/04 00:28:56;;;;;;;;;;;;;;;7.82;100.00;99676.48;1707869;84;20418;-73
2022/05/04 00:31:22;;;;;;;;;;;;;;;7.81;100.00;99680.20;1737657;82;20123;-75
2022/05/04 00:33:49;;;;;;;;;;;;;;;7.80;100.00;99676.64;1707205;84;20148;-76
2022/05/04 00:36:16;;;;;;;;;;;;;;;7.78;100.00;99678.66;1725463;83;20131;-74
2022/05/04 00:38:43;;;;;;;;;;;;;;;7.79;100.00;99675.45;1724643;83;20133;-75
2022/05/04 00:41:10;;;;;;;;;;;;;;;7.79;100.00;99680.84;1724745;83;20133;-75
2022/05/04 00:43:37;;;;;;;;;;;;;;;7.78;100.00;99678.66;1724940;82;20097;-74
2022/05/04 00:46:03;;;;;;;;;;;;;;;7.77;100.00;99676.13;1724758;82;20377;-74
2022/05/04 00:48:30;;;;;;;;;;;;;;;7.77;100.00;99671.61;1742412;82;20096;-74
2022/05/04 00:50:57;;;;;;;;;;;;;;;7.77;100.00;99673.44;1743013;82;20131;-77
2022/05/04 00:53:24;;;;;;;;;;;;;;;7.75;100.00;99677.63;1742734;82;20103;-76
2022/05/04 00:55:50;;;;;;;;;;;;;;;7.74;100.00;99675.96;1742958;82;20091;-75
2022/05/04 01:01:02;;;;;;;;;;;;;;;7.74;100.00;99682.69;1743182;82;20305;-75
2022/05/04 01:03:29;;;;;;;;;;;;;;;7.71;100.00;99677.62;1743026;82;20427;-75
2022/05/04 01:05:56;;;;;;;;;;;;;;;7.70;100.00;99678.64;1743011;82;20166;-74
2022/05/04 01:08:23;;;;;;;;;;;;;;;7.68;100.00;99683.32;1743010;82;20115;-74
2022/05/04 01:10:49;;;;;;;;;;;;;;;7.67;100.00;99687.55;1743251;81;20399;-74
2022/05/04 01:13:20;;;;;;;;;;;;;;;7.65;100.00;99676.94;1743265;82;20099;-75
2022/05/04 01:15:47;;;;;;;;;;;;;;;7.63;100.00;99680.27;1742737;82;20099;-76
2022/05/04 01:18:14;;;;;;;;;;;;;;;7.59;100.00;99686.47;1743109;82;20111;-75
2022/05/04 01:20:41;;;;;;;;;;;;;;;7.56;100.00;99683.26;1743182;82;20135;-76
2022/05/04 01:23:08;;;;;;;;;;;;;;;7.52;100.00;99677.87;1740126;82;20099;-75
2022/05/04 01:25:36;;;;;;;;;;;;;;;7.53;100.00;99685.78;1731009;83;20107;-74
2022/05/04 01:28:03;;;;;;;;;;;;;;;7.50;100.00;99675.33;1727639;83;20135;-75
2022/05/04 01:33:00;;;;;;;;;;;;;;;7.48;100.00;99676.52;1620245;87;20434;-76
2022/05/04 01:35:27;;;;;;;;;;;;;;;7.46;100.00;99672.63;1619988;89;20109;-76
2022/05/04 01:37:54;;;;;;;;;;;;;;;7.44;100.00;99671.95;1620228;88;20130;-76
2022/05/04 01:40:21;;;;;;;;;;;;;;;7.46;100.00;99674.48;1620460;89;20105;-74
2022/05/04 01:42:48;;;;;;;;;;;;;;;7.46;100.00;99673.14;1620276;89;20116;-76
2022/05/04 01:45:14;;;;;;;;;;;;;;;7.46;100.00;99673.14;1620263;89;20121;-74
2022/05/04 01:47:43;;;;;;;;;;;;;;;7.44;100.00;99679.16;1606348;89;20412;-75
2022/05/04 01:50:11;;;;;;;;;;;;;;;7.44;100.00;99681.84;1598083;89;20152;-75
2022/05/04 01:52:37;;;;;;;;;;;;;;;7.42;100.00;99679.34;1597731;89;20143;-77
2022/05/04 01:55:05;;;;;;;;;;;;;;;7.40;100.00;99674.59;1597860;89;20143;-74
2022/05/04 01:57:33;;;;;;;;;;;;;;;7.37;100.00;99670.91;1597673;89;20167;-75
2022/05/04 01:59:59;;;;;;;;;;;;;;;7.32;100.00;99671.38;1598178;89;20267;-74
2022/05/04 02:02:26;;;;;;;;;;;;;;;7.30;100.00;99669.86;1598130;89;20147;-75
2022/05/04 02:04:53;;;;;;;;;;;;;;;7.27;100.00;99668.82;1598073;89;20427;-74
2022/05/04 02:07:20;;;;;;;;;;;;;;;7.26;100.00;99676.53;1598039;89;20119;-74
2022/05/04 02:09:47;;;;;;;;;;;;;;;7.22;100.00;99671.50;1597796;89;20176;-75
2022/05/04 02:12:14;;;;;;;;;;;;;;;7.20;100.00;99669.95;1597974;89;20151;-75
2022/05/04 02:14:41;;;;;;;;;;;;;;;7.21;100.00;99665.76;1598166;89;20143;-75
2022/05/04 02:17:07;;;;;;;;;;;;;;;7.21;100.00;99671.14;1597984;89;20460;-75
2022/05/04 02:19:35;;;;;;;;;;;;;;;7.20;100.00;99667.26;1597613;89;20180;-75
2022/05/04 02:22:02;;;;;;;;;;;;;;;7.20;100.00;99669.95;1598718;89;20193;-75
2022/05/04 02:24:29;;;;;;;;;;;;;;;7.19;100.00;99671.80;1599158;89;20237;-75
2022/05/04 02:26:56;;;;;;;;;;;;;;;7.19;100.00;99672.31;1597253;89;20127;-75
2022/05/04 02:29:23;;;;;;;;;;;;;;;7.18;100.00;99671.95;1641288;84;20129;-76
2022/05/04 02:31:50;;;;;;;;;;;;;;;7.17;100.00;99671.60;1717465;84;20113;-76
2022/05/04 02:34:17;;;;;;;;;;;;;;;7.16;100.00;99672.63;1717511;84;20113;-75
2022/05/04 02:39:29;;;;;;;;;;;;;;;7.14;100.00;99680.84;1717106;84;20133;-76
2022/05/04 02:41:56;;;;;;;;;;;;;;;7.14;100.00;99679.50;1716978;84;20109;-76
2022/05/04 02:44:24;;;;;;;;;;;;;;;7.14;100.00;99684.05;1716979;84;20437;-76
2022/05/04 02:46:51;;;;;;;;;;;;;;;7.13;100.00;99681.83;1716894;84;20113;-76
2022/05/04 02:49:18;;;;;;;;;;;;;;;7.12;100.00;99682.84;1766263;81;20097;-75
2022/05/04 02:51:45;;;;;;;;;;;;;;;7.13;100.00;99685.86;1742201;82;20111;-75
2022/05/04 02:54:11;;;;;;;;;;;;;;;7.14;100.00;99684.88;1766357;81;20098;-76
2022/05/04 02:56:39;;;;;;;;;;;;;;;7.14;100.00;99682.19;1742054;82;20100;-75
2022/05/04 02:59:06;;;;;;;;;;;;;;;7.15;100.00;99686.58;1766001;81;20129;-75
2022/05/04 03:04:18;;;;;;;;;;;;;;;7.17;100.00;99684.56;1766303;81;20386;-75
2022/05/04 03:06:45;;;;;;;;;;;;;;;7.19;100.00;99687.94;1741999;82;20087;-75
2022/05/04 03:09:13;;;;;;;;;;;;;;;7.22;100.00;99693.48;1745604;82;20111;-75
2022/05/04 03:11:55;;;;;;;;;;;;;;;7.23;100.00;99687.12;1766315;81;20105;-74
2022/05/04 03:14:24;;;;;;;;;;;;;;;7.27;100.00;99689.83;1742103;82;20487;-74
2022/05/04 03:16:53;;;;;;;;;;;;;;;7.29;100.00;99686.47;1766211;81;20109;-75
2022/05/04 03:19:21;;;;;;;;;;;;;;;7.29;100.00;99682.44;1741787;82;20104;-75
2022/05/04 03:21:49;;;;;;;;;;;;;;;7.31;100.00;99679.59;1741891;82;20095;-73
2022/05/04 03:24:16;;;;;;;;;;;;;;;7.33;100.00;99677.58;1766167;81;20105;-75
2022/05/04 03:26:43;;;;;;;;;;;;;;;7.35;100.00;99676.95;1742919;82;20126;-75
2022/05/04 03:29:10;;;;;;;;;;;;;;;7.37;100.00;99680.32;1744994;82;20142;-74
2022/05/04 03:31:36;;;;;;;;;;;;;;;7.37;100.00;99687.05;1758606;82;20120;-76
2022/05/04 03:34:03;;;;;;;;;;;;;;;7.41;100.00;99687.06;1736695;81;20189;-76
2022/05/04 03:36:30;;;;;;;;;;;;;;;7.46;100.00;99686.59;1724766;83;20104;-76
2022/05/04 03:38:58;;;;;;;;;;;;;;;7.53;100.00;99686.30;1718919;82;20097;-75
2022/05/04 03:41:25;;;;;;;;;;;;;;;7.59;100.00;99689.16;1724987;82;20106;-75
2022/05/04 03:43:52;;;;;;;;;;;;;;;7.66;100.00;99689.88;1724982;82;20105;-75
2022/05/04 03:46:21;;;;;;;;;;;;;;;7.72;100.00;99692.78;1725852;82;20097;-75
2022/05/04 03:48:49;;;;;;;;;;;;;;;7.80;100.00;99693.30;1679890;84;20104;-74
2022/05/04 03:51:22;;;;;;;;;;;;;;;7.86;100.00;99703.45;1678908;85;20097;-74
2022/05/04 03:53:51;;;;;;;;;;;;;;;7.95;100.00;99700.25;1679952;85;20132;-75
2022/05/04 03:56:18;;;;;;;;;;;;;;;8.06;100.00;99704.53;1680288;85;20215;-74
2022/05/04 03:58:46;;;;;;;;;;;;;;;8.15;100.00;99710.27;1679971;85;20155;-73
2022/05/04 04:01:13;;;;;;;;;;;;;;;8.26;100.00;99709.95;1680228;85;20429;-74
2022/05/04 04:03:40;;;;;;;;;;;;;;;8.37;100.00;99711.50;1680093;85;20100;-73
2022/05/04 04:06:06;;;;;;;;;;;;;;;8.47;100.00;99716.78;1680154;85;20194;-73
2022/05/04 04:08:33;;;;;;;;;;;;;;;8.58;100.00;99725.06;1680108;85;20144;-73
2022/05/04 04:11:01;;;;;;;;;;;;;;;8.69;100.00;99728.77;1680623;85;20105;-70
2022/05/04 04:13:28;;;;;;;;;;;;;;;8.80;100.00;99716.33;1681592;85;20113;-75
2022/05/04 04:15:55;;;;;;;;;;;;;;;8.93;100.00;99725.27;1680938;85;20112;-72
2022/05/04 04:18:23;;;;;;;;;;;;;;;9.04;100.00;99724.91;1679986;85;20135;-76
2022/05/04 04:23:37;;;;;;;;;;;;;;;9.31;100.00;99728.27;1680209;85;20445;-75
2022/05/04 04:26:05;;;;;;;;;;;;;;;9.47;100.00;99731.45;1680137;85;20132;-73
2022/05/04 04:28:34;;;;;;;;;;;;;;;9.61;100.00;99735.30;1679375;84;20160;-74
2022/05/04 04:31:01;;;;;;;;;;;;;;;9.72;100.00;99742.19;1679550;86;20112;-76
2022/05/04 04:33:29;;;;;;;;;;;;;;;9.82;100.00;99737.45;1679389;86;20441;-76
2022/05/04 04:36:01;;;;;;;;;;;;;;;9.94;100.00;99732.52;1634954;88;20095;-73
2022/05/04 04:38:28;;;;;;;;;;;;;;;10.04;100.00;99732.64;1683440;85;20136;-75
2022/05/04 04:40:58;;;;;;;;;;;;;;;10.17;100.00;99729.89;1683453;85;20178;-74
2022/05/04 04:43:25;;;;;;;;;;;;;;;10.29;100.00;99728.97;1683242;85;20116;-74
2022/05/04 04:45:51;;;;;;;;;;;;;;;10.42;100.00;99734.17;1709408;83;20137;-76
2022/05/04 04:48:19;;;;;;;;;;;;;;;10.57;100.00;99734.75;1766005;81;20097;-75
2022/05/04 04:50:46;;;;;;;;;;;;;;;10.74;100.00;99732.28;1771132;81;20109;-76
2022/05/04 04:53:13;;;;;;;;;;;;;;;10.94;100.00;99736.72;1751610;82;20144;-71
2022/05/04 04:55:44;;;;;;;;;;;;;;;11.07;100.00;99732.56;1770996;81;20132;-74
2022/05/04 04:58:10;;;;;;;;;;;;;;;11.15;100.00;99736.53;1751861;82;20098;-75
2022/05/04 05:00:38;;;;;;;;;;;;;;;11.28;100.00;99740.83;1770601;81;20109;-75
2022/05/04 05:03:05;;;;;;;;;;;;;;;11.46;100.00;99741.02;1751952;82;20103;-76
2022/05/04 05:05:32;;;;;;;;;;;;;;;11.65;100.00;99739.12;1751506;82;20154;-76
2022/05/04 05:07:59;;;;;;;;;;;;;;;11.82;100.00;99745.70;1770773;81;20105;-75
2022/05/04 05:10:27;;;;;;;;;;;;;;;11.92;100.00;99743.08;1752089;82;20403;-75
2022/05/04 05:12:56;;;;;;;;;;;;;;;12.00;100.00;99750.26;1752491;82;20165;-73
2022/05/04 05:18:09;;;;;;;;;;;;;;;12.23;100.00;99746.08;1770292;81;20449;-72
2022/05/04 05:20:37;;;;;;;;;;;;;;;12.30;100.00;99752.95;1751148;82;20380;-74
2022/05/04 05:23:04;;;;;;;;;;;;;;;12.30;100.00;99757.84;1770681;81;20421;-74
2022/05/04 05:25:32;;;;;;;;;;;;;;;12.33;100.00;99758.00;1704525;84;20139;-72
2022/05/04 05:27:59;;;;;;;;;;;;;;;12.38;100.00;99758.27;1699021;84;20103;-74
2022/05/04 05:30:26;;;;;;;;;;;;;;;12.42;100.00;99764.16;1733510;82;20107;-72
2022/05/04 05:32:53;;;;;;;;;;;;;;;12.54;100.00;99760.75;1753765;82;20118;-70
2022/05/04 05:35:21;;;;;;;;;;;;;;;12.72;100.00;99760.85;1725541;82;20159;-72
2022/05/04 05:37:49;;;;;;;;;;;;;;;12.81;100.00;99770.55;1718593;83;20126;-74
2022/05/04 05:40:15;;;;;;;;;;;;;;;12.96;100.00;99764.22;1736670;82;20182;-73
2022/05/04 05:42:42;;;;;;;;;;;;;;;13.10;100.00;99766.89;1747676;82;20096;-73
2022/05/04 05:45:09;;;;;;;;;;;;;;;13.17;100.00;99764.21;1744900;82;20107;-74
2022/05/04 05:47:36;;;;;;;;;;;;;;;13.20;100.00;99769.78;1743136;82;20088;-75
2022/05/04 05:50:03;;;;;;;;;;;;;;;13.28;100.00;99768.30;1767018;81;20172;-72
2022/05/04 05:52:30;;;;;;;;;;;;;;;13.37;100.00;99761.73;1756951;80;20116;-73
2022/05/04 05:54:58;;;;;;;;;;;;;;;13.52;100.00;99767.58;1746609;82;20177;-73
2022/05/04 05:57:25;;;;;;;;;;;;;;;13.72;100.00;99765.00;1746943;82;20141;-73
2022/05/04 05:59:55;;;;;;;;;;;;;;;13.80;100.00;99762.98;1746238;82;20134;-74
2022/05/04 06:02:28;;;;;;;;;;;;;;;14.04;100.00;99768.47;1746743;82;20123;-72
2022/05/04 06:04:55;;;;;;;;;;;;;;;14.20;100.00;99764.58;1748047;82;20099;-75
2022/05/04 06:07:22;;;;;;;;;;;;;;;14.30;100.00;99761.47;1746060;82;20166;-74
2022/05/04 06:09:51;;;;;;;;;;;;;;;14.35;100.00;99767.67;1746358;82;20087;-75
2022/05/04 06:12:19;;;;;;;;;;;;;;;14.39;100.00;99772.49;1746954;82;20115;-73
2022/05/04 06:14:46;;;;;;;;;;;;;;;14.39;100.00;99769.77;1746990;82;20103;-75
2022/05/04 06:17:13;;;;;;;;;;;;;;;14.59;100.00;99776.70;1746742;82;20147;-67
2022/05/04 06:19:41;;;;;;;;;;;;;;;14.91;100.00;99772.92;1746128;82;20120;-71
2022/05/04 06:22:08;;;;;;;;;;;;;;;15.22;100.00;99785.65;1745888;82;20139;-68
2022/05/04 06:24:35;;;;;;;;;;;;;;;15.38;100.00;99785.23;1746074;82;20107;-70
2022/05/04 06:27:03;;;;;;;;;;;;;;;15.48;100.00;99782.11;1745682;82;20099;-68
2022/05/04 06:35:04;;;;;;;;;;;;;;;15.71;100.00;99772.14;1745703;80;20622;-72
2022/05/04 06:37:31;;;;;;;;;;;;;;;15.81;100.00;99768.50;1688509;84;20137;-72
2022/05/04 06:39:58;;;;;;;;;;;;;;;15.91;100.00;99768.88;1729658;83;20430;-72
2022/05/04 06:42:25;;;;;;;;;;;;;;;16.04;100.00;99776.72;1730127;83;20183;-74
2022/05/04 06:44:52;;;;;;;;;;;;;;;16.08;100.00;99772.53;1730100;83;20160;-74
2022/05/04 06:47:19;;;;;;;;;;;;;;;16.24;100.00;99772.59;1741634;82;20174;-73
2022/05/04 06:49:46;;;;;;;;;;;;;;;16.32;100.00;99772.34;1767969;80;20118;-70
2022/05/04 06:52:13;;;;;;;;;;;;;;;16.31;100.00;99770.14;1749245;82;20451;-72
2022/05/04 06:54:40;;;;;;;;;;;;;;;16.25;100.00;99776.45;1768074;81;20132;-75
2022/05/04 06:57:07;;;;;;;;;;;;;;;16.27;100.00;99770.27;1749404;82;20177;-71
2022/05/04 06:59:36;;;;;;;;;;;;;;;16.23;100.00;99766.28;1768621;81;20136;-76
2022/05/04 07:02:03;;;;;;;;;;;;;;;16.18;100.00;99775.62;1749880;82;20135;-73
2022/05/04 07:04:30;;;;;;;;;;;;;;;16.18;100.00;99763.36;1768315;81;20109;-74
2022/05/04 07:06:58;;;;;;;;;;;;;;;16.37;100.00;99771.70;1750562;82;20107;-73
2022/05/04 07:09:25;;;;;;;;;;;;;;;16.53;100.00;99780.77;1750865;82;20135;-74
2022/05/04 07:11:52;;;;;;;;;;;;;;;16.64;100.00;99776.01;1769493;81;20105;-73
2022/05/04 07:14:19;;;;;;;;;;;;;;;16.79;100.00;99770.78;1750315;82;20134;-75
2022/05/04 07:16:46;;;;;;;;;;;;;;;17.00;100.00;99775.94;1749699;82;20146;-74
2022/05/04 07:19:14;;;;;;;;;;;;;;;17.19;100.00;99773.28;1768528;81;20156;-73
2022/05/04 07:21:42;;;;;;;;;;;;;;;17.40;100.00;99775.64;1750090;82;20134;-73
2022/05/04 07:24:11;;;;;;;;;;;;;;;17.66;100.00;99773.76;1768240;81;20144;-73
2022/05/04 07:26:38;;;;;;;;;;;;;;;17.79;100.00;99776.35;1749450;82;20209;-74
2022/05/04 07:29:05;;;;;;;;;;;;;;;17.90;100.00;99767.14;1744537;82;20590;-75
2022/05/04 07:31:32;;;;;;;;;;;;;;;18.07;100.00;99771.50;1742970;82;20141;-73
2022/05/04 07:33:59;;;;;;;;;;;;;;;18.11;100.00;99772.17;1733967;82;20242;-72
2022/05/04 07:36:26;;;;;;;;;;;;;;;18.37;100.00;99772.95;1714674;83;20125;-72
2022/05/04 07:38:53;;;;;;;;;;;;;;;18.52;100.00;99772.03;1714794;83;20133;-70
2022/05/04 07:44:07;;;;;;;;;;;;;;;18.80;100.00;99762.38;1713595;82;20178;-69
2022/05/04 07:46:34;;;;;;;;;;;;;;;18.93;100.00;99770.45;1716007;83;20127;-72
2022/05/04 07:49:01;;;;;;;;;;;;;;;19.00;100.00;99767.63;1756431;82;20123;-70
2022/05/04 07:51:28;;;;;;;;;;;;;;;18.98;100.00;99769.74;1765306;80;20125;-70
2022/05/04 07:53:55;;;;;;;;;;;;;;;18.95;100.00;99767.49;1760310;82;20106;-70
2022/05/04 07:56:22;;;;;;;;;;;;;;;19.01;100.00;99767.91;1761633;82;20143;-73
2022/05/04 07:58:51;;;;;;;;;;;;;;;19.04;100.00;99765.26;1760075;82;20099;-77
2022/05/04 08:04:20;;;;;;;;;;;;;;;19.59;100.00;99763.63;1760543;82;20141;-73
2022/05/04 08:06:47;;;;;;;;;;;;;;;19.68;100.00;99767.69;1760562;82;20393;-74
2022/05/04 08:09:14;;;;;;;;;;;;;;;19.71;100.00;99767.77;1759887;82;20157;-72
2022/05/04 08:11:43;;;;;;;;;;;;;;;19.78;100.00;99760.80;1759987;81;20136;-73
2022/05/04 08:14:12;;;;;;;;;;;;;;;19.82;100.00;99754.61;1761013;82;20142;-76
2022/05/04 08:16:42;;;;;;;;;;;;;;;19.79;99.67;99759.19;1760953;82;20402;-74
2022/05/04 08:19:09;;;;;;;;;;;;;;;19.94;100.00;99751.87;1760602;82;20114;-73
2022/05/04 08:21:37;;;;;;;;;;;;;;;20.07;100.00;99750.23;1760349;81;20101;-70
2022/05/04 08:24:06;;;;;;;;;;;;;;;20.33;97.35;99745.30;1760760;82;20160;-69
2022/05/04 08:26:33;;;;;;;;;;;;;;;20.33;97.05;99741.70;1759906;81;20152;-72
2022/05/04 08:29:00;;;;;;;;;;;;;;;20.32;96.14;99749.11;1759659;82;20133;-70
2022/05/04 08:31:28;;;;;;;;;;;;;;;20.38;97.68;99752.80;1759609;82;20414;-72
2022/05/04 08:33:54;;;;;;;;;;;;;;;20.63;97.34;99755.28;1759086;82;20114;-69
2022/05/04 08:36:21;;;;;;;;;;;;;;;20.68;94.29;99763.59;1759394;82;20134;-72
2022/05/04 08:38:49;;;;;;;;;;;;;;;20.54;94.52;99761.66;1758963;82;20123;-75
2022/05/04 08:41:16;;;;;;;;;;;;;;;20.53;95.16;99759.98;1759967;82;20110;-74
2022/05/04 08:43:43;;;;;;;;;;;;;;;20.51;93.87;99759.39;1760095;82;20118;-76
2022/05/04 08:46:14;;;;;;;;;;;;;;;20.47;90.60;99758.22;1759814;82;20098;-74
2022/05/04 08:48:40;;;;;;;;;;;;;;;20.47;89.88;99752.19;1765485;81;20102;-74
2022/05/04 08:51:08;;;;;;;;;;;;;;;20.61;87.74;99750.52;1778823;81;20117;-73
2022/05/04 08:53:36;;;;;;;;;;;;;;;20.49;86.19;99755.52;1757316;82;20126;-74
2022/05/04 08:56:05;;;;;;;;;;;;;;;20.54;85.87;99756.69;1756571;82;20138;-72
2022/05/04 08:58:37;;;;;;;;;;;;;;;20.55;83.10;99744.09;1779480;81;20144;-76
2022/05/04 09:01:04;;;;;;;;;;;;;;;20.42;83.22;99743.84;1758105;82;20134;-74
2022/05/04 09:03:34;;;;;;;;;;;;;;;20.51;83.71;99742.92;1779626;80;20105;-75
2022/05/04 09:06:01;;;;;;;;;;;;;;;20.74;85.54;99736.53;1757508;82;20110;-75
2022/05/04 09:08:28;;;;;;;;;;;;;;;21.07;82.52;99725.33;1778501;81;20120;-72
2022/05/04 09:10:55;;;;;;;;;;;;;;;21.09;80.47;99728.66;1757554;82;20110;-76
2022/05/04 09:13:21;;;;;;;;;;;;;;;21.19;79.50;99732.94;1730637;82;20138;-75
2022/05/04 09:15:51;;;;;;;;;;;;;;;21.33;79.49;99730.70;1779358;80;20105;-74
2022/05/04 09:18:17;;;;;;;;;;;;;;;21.52;75.53;99729.95;1757141;82;20099;-72
2022/05/04 09:20:48;;;;;;;;;;;;;;;21.58;72.78;99720.70;1779145;80;20113;-74
2022/05/04 09:26:01;;;;;;;;;;;;;;;21.86;70.20;99722.20;1711062;84;20138;-77
2022/05/04 09:28:29;;;;;;;;;;;;;;;21.91;68.01;99727.22;1650601;87;20305;-67
2022/05/04 09:31:02;;;;;;;;;;;;;;;21.84;68.01;99718.87;1649199;87;20131;-78
2022/05/04 09:33:32;;;;;;;;;;;;;;;21.64;67.15;99719.37;1649276;86;20152;-75
2022/05/04 09:35:59;;;;;;;;;;;;;;;21.56;69.81;99721.47;1624040;87;20436;-73
2022/05/04 09:46:49;;;;;;;;;;;;;;;20.76;69.56;99717.88;1601525;90;20107;-78
2022/05/04 09:49:17;;;;;;;;;;;;;;;20.75;71.03;99714.86;1601625;90;20131;-77
2022/05/04 09:51:50;;;;;;;;;;;;;;;20.75;69.58;99713.48;1600712;89;20151;-73
2022/05/04 09:54:30;;;;;;;;;;;;;;;20.80;69.57;99708.06;1548824;91;20609;-76
2022/05/04 09:56:59;;;;;;;;;;;;;;;20.84;70.29;99711.14;1548806;93;20152;-75
2022/05/04 09:59:34;;;;;;;;;;;;;;;20.84;67.51;99702.91;1548729;93;20124;-77
2022/05/04 10:02:02;;;;;;;;;;;;;;;20.71;72.09;99699.93;1548010;93;20121;-77
2022/05/04 10:04:29;;;;;;;;;;;;;;;20.98;70.93;99696.04;1548902;93;20470;-72
2022/05/04 10:06:56;;;;;;;;;;;;;;;21.14;71.43;99699.03;1548440;93;20164;-74
2022/05/04 10:09:23;;;;;;;;;;;;;;;21.15;71.79;99696.03;1548161;93;20116;-73
2022/05/04 10:11:59;;;;;;;;;;;;;;;21.14;69.37;99701.78;1548220;93;20117;-76
2022/05/04 10:14:26;;;;;;;;;;;;;;;21.00;69.48;99689.75;1548789;93;20141;-77
2022/05/04 10:17:06;;;;;;;;;;;;;;;20.85;71.97;99689.47;1547822;93;20180;-75
2022/05/04 10:19:46;;;;;;;;;;;;;;;20.70;71.43;99690.03;1548339;93;20160;-75
2022/05/04 10:22:15;;;;;;;;;;;;;;;20.30;72.23;99686.75;1548593;93;20141;-76
2022/05/04 10:24:42;;;;;;;;;;;;;;;20.05;76.51;99693.38;1543418;91;20127;-74
2022/05/04 10:27:22;;;;;;;;;;;;;;;20.05;78.39;99693.92;1525666;94;20152;-70
2022/05/04 10:32:36;;;;;;;;;;;;;;;20.22;78.25;99682.48;1554028;92;20112;-70
2022/05/04 10:35:23;;;;;;;;;;;;;;;20.05;77.32;99686.52;1551928;92;20301;-70
2022/05/04 10:38:00;;;;;;;;;;;;;;;19.89;78.18;99677.67;1548585;93;20166;-69
2022/05/04 10:40:34;;;;;;;;;;;;;;;19.72;79.06;99681.13;1580346;89;20114;-70
2022/05/04 10:43:03;;;;;;;;;;;;;;;19.44;81.27;99687.85;1610910;89;20118;-72
2022/05/04 10:45:32;;;;;;;;;;;;;;;19.26;92.79;99682.77;1610993;89;20177;-69
2022/05/04 10:48:21;;;;;;;;;;;;;;;19.35;100.00;99686.00;1606088;89;20426;-71
2022/05/04 10:50:53;;;;;;;;;;;;;;;19.40;98.17;99669.67;1660387;82;20139;-72
2022/05/04 10:53:29;;;;;;;;;;;;;;;19.35;93.72;99673.66;1751541;82;20114;-71
2022/05/04 10:56:02;;;;;;;;;;;;;;;19.45;93.86;99665.69;1728734;83;20390;-72
2022/05/04 10:58:36;;;;;;;;;;;;;;;19.65;89.12;99663.11;1722565;83;20104;-76
2022/05/04 11:01:09;;;;;;;;;;;;;;;19.77;87.10;99656.28;1728929;83;20108;-72
2022/05/04 11:03:37;;;;;;;;;;;;;;;19.72;84.45;99656.95;1728599;83;20421;-69
2022/05/04 11:06:23;;;;;;;;;;;;;;;19.65;83.69;99658.45;1728693;83;20128;-73
2022/05/04 11:08:49;;;;;;;;;;;;;;;19.45;84.03;99662.94;1728560;83;20109;-76
2022/05/04 11:11:16;;;;;;;;;;;;;;;19.23;85.48;99659.97;1728654;82;20105;-75
2022/05/04 11:13:43;;;;;;;;;;;;;;;19.06;87.62;99658.45;1724341;82;20232;-75
2022/05/04 11:16:10;;;;;;;;;;;;;;;19.01;93.83;99655.58;1728434;82;20109;-72
2022/05/04 11:18:38;;;;;;;;;;;;;;;18.96;100.00;99646.72;1728724;83;20156;-71
2022/05/04 11:21:13;;;;;;;;;;;;;;;18.75;100.00;99649.44;1728606;83;20124;-70
2022/05/04 11:23:40;;;;;;;;;;;;;;;18.65;100.00;99644.23;1727933;83;20105;-70
2022/05/04 11:26:06;;;;;;;;;;;;;;;18.73;100.00;99638.41;1728707;83;20129;-71
2022/05/04 11:28:34;;;;;;;;;;;;;;;18.88;100.00;99640.20;1733460;81;20129;-71
2022/05/04 11:31:01;;;;;;;;;;;;;;;19.01;100.00;99635.58;1748865;82;20087;-70
2022/05/04 11:33:28;;;;;;;;;;;;;;;19.08;99.25;99633.56;1767881;81;20097;-69
2022/05/04 11:35:55;;;;;;;;;;;;;;;19.19;100.00;99631.34;1726826;82;20125;-70
2022/05/04 11:38:22;;;;;;;;;;;;;;;19.53;100.00;99624.20;1726655;83;20090;-69
2022/05/04 11:40:49;;;;;;;;;;;;;;;19.99;100.00;99624.91;1725932;83;20132;-69
2022/05/04 11:43:33;;;;;;;;;;;;;;;20.46;99.57;99626.11;1725772;83;20097;-71
2022/05/04 11:46:07;;;;;;;;;;;;;;;20.76;95.78;99616.78;1726023;83;20125;-70
2022/05/04 11:48:35;;;;;;;;;;;;;;;20.91;94.73;99617.57;1748586;82;20134;-69
2022/05/04 11:51:02;;;;;;;;;;;;;;;21.09;90.65;99613.73;1767598;81;20127;-68
2022/05/04 11:53:30;;;;;;;;;;;;;;;21.12;89.92;99609.94;1748530;82;20412;-70
2022/05/04 11:55:59;;;;;;;;;;;;;;;21.11;85.17;99607.47;1748819;82;20102;-69
2022/05/04 11:58:27;;;;;;;;;;;;;;;20.84;84.31;99606.22;1682637;84;20128;-67
2022/05/04 12:00:53;;;;;;;;;;;;;;;20.39;85.76;99602.09;1683350;85;20152;-69
2022/05/04 12:03:21;;;;;;;;;;;;;;;20.20;89.04;99605.05;1683752;85;20152;-68
2022/05/04 12:05:48;;;;;;;;;;;;;;;20.15;91.79;99599.45;1683595;85;20565;-68
2022/05/04 12:08:17;;;;;;;;;;;;;;;20.00;94.09;99597.77;1683201;85;20124;-69
2022/05/04 12:10:43;;;;;;;;;;;;;;;19.99;94.66;99590.61;1683696;85;20428;-69
2022/05/04 12:13:10;;;;;;;;;;;;;;;19.97;88.88;99592.77;1683569;85;20229;-72
2022/05/04 12:15:38;;;;;;;;;;;;;;;20.06;86.47;99593.52;1683727;85;20132;-72
2022/05/04 12:18:05;;;;;;;;;;;;;;;20.05;83.92;99588.27;1682153;85;20193;-72
2022/05/04 12:20:34;;;;;;;;;;;;;;;20.00;86.24;99592.28;1682211;85;20189;-71
2022/05/04 12:23:01;;;;;;;;;;;;;;;20.04;88.29;99592.94;1683782;85;20428;-75
2022/05/04 12:25:28;;;;;;;;;;;;;;;19.91;85.77;99592.66;1683341;85;20140;-75
2022/05/04 12:27:57;;;;;;;;;;;;;;;19.69;86.07;99597.95;1683148;85;20960;-76
2022/05/04 12:33:11;;;;;;;;;;;;;;;19.66;87.25;99597.05;1692054;84;20150;-78
2022/05/04 12:35:43;;;;;;;;;;;;;;;19.66;86.89;99592.11;1674883;85;20147;-76
2022/05/04 12:38:11;;;;;;;;;;;;;;;19.53;86.32;99586.36;1672874;85;20142;-77
2022/05/04 12:40:38;;;;;;;;;;;;;;;19.43;88.12;99585.59;1672209;85;20531;-76
2022/05/04 12:43:05;;;;;;;;;;;;;;;19.46;89.13;99585.62;1672936;84;20256;-75
2022/05/04 12:45:34;;;;;;;;;;;;;;;19.66;89.68;99576.48;1672894;85;20135;-75
2022/05/04 12:48:03;;;;;;;;;;;;;;;19.77;88.46;99578.92;1631237;88;20150;-78
2022/05/04 12:50:30;;;;;;;;;;;;;;;19.60;90.88;99582.95;1630821;88;20121;-77
2022/05/04 12:52:57;;;;;;;;;;;;;;;19.68;97.13;99582.55;1631170;88;20120;-76
2022/05/04 12:58:09;;;;;;;;;;;;;;;20.02;99.01;99576.41;1642998;87;20103;-77
2022/05/04 13:00:37;;;;;;;;;;;;;;;20.18;96.99;99581.65;1643013;87;20136;-76
2022/05/04 13:03:07;;;;;;;;;;;;;;;20.22;97.47;99583.67;1643181;87;20153;-77
2022/05/04 13:05:33;;;;;;;;;;;;;;;20.36;94.62;99581.98;1642738;87;20168;-72
2022/05/04 13:08:00;;;;;;;;;;;;;;;20.30;90.58;99588.74;1642212;87;20108;-74
2022/05/04 13:10:30;;;;;;;;;;;;;;;20.19;95.32;99593.76;1643094;87;20178;-75
2022/05/04 13:12:58;;;;;;;;;;;;;;;20.22;97.31;99587.79;1642468;87;20150;-75
2022/05/04 13:15:26;;;;;;;;;;;;;;;20.25;97.45;99586.45;1642425;87;20123;-75
2022/05/04 13:17:53;;;;;;;;;;;;;;;20.39;97.95;99597.41;1642189;87;20415;-77
2022/05/04 13:20:20;;;;;;;;;;;;;;;20.49;96.11;99600.91;1643706;87;20163;-76
2022/05/04 13:22:49;;;;;;;;;;;;;;;20.63;94.13;99598.72;1642975;87;20144;-75
2022/05/04 13:25:16;;;;;;;;;;;;;;;20.71;89.78;99590.05;1641351;87;20151;-75
2022/05/04 13:27:44;;;;;;;;;;;;;;;20.81;87.71;99598.47;1643589;87;20179;-75
2022/05/04 13:30:11;;;;;;;;;;;;;;;20.62;88.89;99597.86;1636536;87;20440;-73
2022/05/04 13:35:08;;;;;;;;;;;;;;;20.72;89.67;99595.02;1609289;89;20123;-76
2022/05/04 13:37:36;;;;;;;;;;;;;;;20.67;88.00;99601.25;1609645;89;20127;-77